aviador You're here:

LFRZ Decoded Metar

ST.-NAZAIRE in FRANCE
Report Time2017-10-17 20:00:00
UTC Time2017-10-17 20:33:38
Flight Rules mvfr MVFR
Wind140° at 05 kt
W.Decomp.*RWY 08: 2.3 kt HW 4.4 kt RCW
W.Rank140° ranks 33
Current wind is below 140° avg. (6.1)
Visibility9999 m
Phenomena:N/A
Clouds:N/A
Expected CloudBase > 800 ft AGL from Temp-Dew spread
Ceiling1,300 ft
Temp16°C (ISA +1)
Dew Point14°C (88% RH)
AAT15.5°C
QNH1012 hPa
Density Alt381 ft
Elevation13 ft
Report Wrong Elevation
Raw Report
LFRZ 172000Z AUTO 14005KT CAVOK 16/14 Q1012 BECMG BKN013=

Extra information for LFRZ:More info

Metar Taf Metar & Taf Last 4 Metars F.Rules Stats Wind Profile Meteogram Temp Stats Airport Information Weather charts Add Link Nearby VenuesMetar ALERT Operation Metar Decoded Social comments